CYOW - Ottawa/Macdonald Cartier Intl

Pirep is a free, collaborative database of all public and private airports located within the United States. All pilots are welcome to contribute, edit, and improve any airport they have local knowledge about, no registration required.
Are you familiar with this airport? Help out other pilots by adding your local knowledge.
Uploaded photos will be licensed under a CC BY-SA 4.0 license. Please only upload photos you have the rights to use.
Tags
Public
Undocu­mented
METAR / TAF
Edit Tags
Food
Camping
Lodging
Car Rental
Bicycles
Swimming
Golfing
Fishing
Hot Springs
Museum
Flying Clubs
Airpark
Upcoming Events
No upcoming events. Is anything happening here soon?
*
*
*

Where exactly on/near the airport is this event taking place?

Is there a webpage with more information for this event?

Who should be contacted for more information?

What is this event all about?

Repeat every
Description
Transient Parking
Fuel Location
Landing & Tie-down Fees
Crew Car Availability
Flying Clubs
WiFi Access
Airport Statistics
Location: Ottawa, CN
Elevation: 374ft
Activation date: Mar 2005
Fuel: None
Runway 14/32: 10,000ft
Runway 07/25: 8,000ft
Runway 04/22: 3,300ft
Access: Open to the public
Current Weather — VFR
  • Weather data is strictly informational and not for flight planning purposes.
  • METAR
    2024-05-29 12:00:00 EDT
    Ceiling Wind Temperature Dewpoint Weather Visbility
    3,400ft 300° @ 7kt 57°F 44°F N/A 15SM
    Clouds: Few @ 2,900ft, Broken @ 3,400ft, Broken @ 22,000ft
    Raw: CYOW 291600Z 30007KT 280V360 15SM FEW029 BKN034 BKN220 14/07 A3000 RMK CU1SC4CI2 SLP164
  • TAF
    2024-05-29 11:00:00 EDT – 2024-05-30 08:00:00 EDT
    Ceiling Wind Weather Visbility
    2,500ft 320° @ 8kt N/A 6SM
    Clouds: Broken @ 2,500ft
    Raw: TAF CYOW 291440Z 2915/3012 32008KT P6SM BKN025 BECMG 2915/2917 FEW040 BKN240 FM292100 33010KT P6SM SKC RMK NXT FCST BY 291800Z
  • TAF
    2024-05-29 11:00:00 EDT – 2024-05-29 17:00:00 EDT
    Ceiling Wind Weather Visbility
    24,000ft 320° @ 8kt N/A 6SM
    Clouds: Few @ 4,000ft, Broken @ 24,000ft
    Raw: TAF CYOW 291440Z 2915/3012 32008KT P6SM BKN025 BECMG 2915/2917 FEW040 BKN240 FM292100 33010KT P6SM SKC RMK NXT FCST BY 291800Z
  • TAF
    2024-05-29 17:00:00 EDT – 2024-05-30 08:00:00 EDT
    Ceiling Wind Weather Visbility
    Sky clear 330° @ 10kt N/A 6SM
    Clouds: @ ft
    Raw: TAF CYOW 291440Z 2915/3012 32008KT P6SM BKN025 BECMG 2915/2917 FEW040 BKN240 FM292100 33010KT P6SM SKC RMK NXT FCST BY 291800Z
Click/tap to add an annotation marker to the map
Airport Webcams
No webcams added yet.
Direct links to live image URLs will be displayed inline on this page. URLs to separate webpages will be linked to.
URL:
Direct links to live image URLs will be displayed inline on this page. URLs to separate webpages will be linked to.
URL:
Remarks
  • See flip ap/1 supplementary arpt info.
Comments
Leave a comment What was your experience like at this airport?